createdAt,value
2022-10-29T00:02:35.692Z,101146.50
2022-10-29T00:05:37.205Z,101139.31
2022-10-29T00:08:40.107Z,101140.09
2022-10-29T00:11:41.547Z,101144.63
2022-10-29T00:14:42.932Z,101146.41
2022-10-29T00:17:44.383Z,101147.28
2022-10-29T00:20:45.896Z,101151.66
2022-10-29T00:23:48.193Z,101147.44
2022-10-29T00:26:49.628Z,101147.56
2022-10-29T00:29:51.696Z,101143.19
2022-10-29T00:32:53.290Z,101143.03
2022-10-29T00:36:05.496Z,101138.66
2022-10-29T00:39:06.932Z,101139.72
2022-10-29T00:42:14.984Z,101150.41
2022-10-29T00:45:21.259Z,101149.72
2022-10-29T00:48:24.937Z,101156.88
2022-10-29T00:51:27.730Z,101155.16
2022-10-29T00:54:31.824Z,101143.63
2022-10-29T00:57:40.681Z,101148.97
2022-10-29T01:00:43.737Z,101145.38
2022-10-29T01:03:46.917Z,101140.91
2022-10-29T01:06:48.621Z,101142.66
2022-10-29T01:09:50.658Z,101153.56
2022-10-29T01:13:39.301Z,101148.38
2022-10-29T01:16:53.281Z,101150.09
2022-10-29T01:20:06.933Z,101149.97
2022-10-29T01:23:43.010Z,101142.66
2022-10-29T01:26:53.460Z,101146.91
2022-10-29T01:30:15.525Z,101138.69
2022-10-29T01:33:23.462Z,101140.38
2022-10-29T01:36:51.281Z,101147.44
2022-10-29T01:39:58.108Z,101144.13
2022-10-29T01:43:12.460Z,101136.03
2022-10-29T01:46:28.952Z,101133.59
2022-10-29T01:49:43.080Z,101131.09
2022-10-29T01:52:46.657Z,101130.22
2022-10-29T01:55:48.040Z,101132.16
2022-10-29T01:58:52.174Z,101133.22
2022-10-29T02:02:08.812Z,101132.56
2022-10-29T02:05:32.484Z,101124.78
2022-10-29T02:08:55.443Z,101118.59
2022-10-29T02:12:05.969Z,101121.31
2022-10-29T02:15:12.482Z,101132.03
2022-10-29T02:18:15.205Z,101125.00
2022-10-29T02:21:18.094Z,101118.00
2022-10-29T02:24:19.555Z,101116.41
2022-10-29T02:27:21.012Z,101117.34
2022-10-29T02:30:22.425Z,101122.84
2022-10-29T02:33:23.997Z,101110.50
2022-10-29T02:36:25.444Z,101124.00
2022-10-29T02:39:26.887Z,101133.59
2022-10-29T02:42:28.297Z,101131.03
2022-10-29T02:45:29.713Z,101136.53
2022-10-29T02:48:31.119Z,101132.16
2022-10-29T02:51:32.619Z,101129.50
2022-10-29T02:54:34.080Z,101119.81
2022-10-29T02:57:35.483Z,101122.47
2022-10-29T03:00:36.860Z,101118.22
2022-10-29T03:03:38.349Z,101119.81
2022-10-29T03:06:39.769Z,101117.91
2022-10-29T03:09:41.185Z,101109.03
2022-10-29T03:12:42.574Z,101106.38
2022-10-29T03:15:45.405Z,101103.72
2022-10-29T03:18:46.911Z,101094.97
2022-10-29T03:21:48.300Z,101093.06
2022-10-29T03:24:49.694Z,101099.25
2022-10-29T03:27:51.075Z,101088.03
2022-10-29T03:30:52.510Z,101087.16
2022-10-29T03:33:53.919Z,101087.97
2022-10-29T03:36:55.314Z,101085.47
2022-10-29T03:39:56.730Z,101084.66
2022-10-29T03:42:58.542Z,101080.22
2022-10-29T03:46:00.126Z,101079.34
2022-10-29T03:49:01.534Z,101079.63
2022-10-29T03:52:03.037Z,101090.25
2022-10-29T03:55:05.781Z,101102.75
2022-10-29T03:58:07.173Z,101101.38
2022-10-29T04:01:10.784Z,101099.47
2022-10-29T04:04:12.312Z,101098.56
2022-10-29T04:07:14.116Z,101101.13
2022-10-29T04:10:15.611Z,101103.97
2022-10-29T04:13:17.785Z,101104.13
2022-10-29T04:16:19.179Z,101103.19
2022-10-29T04:19:20.599Z,101099.53
2022-10-29T04:29:04.746Z,101095.03
2022-10-29T04:32:06.204Z,101099.53
2022-10-29T04:35:07.818Z,101099.53
2022-10-29T04:38:12.801Z,101100.25
2022-10-29T04:41:14.224Z,101100.53
2022-10-29T04:44:15.641Z,101102.34
2022-10-29T04:47:17.147Z,101110.31
2022-10-29T04:50:18.541Z,101106.59
2022-10-29T04:53:20.128Z,101109.28
2022-10-29T04:56:21.998Z,101117.28
2022-10-29T04:59:23.476Z,101115.47
2022-10-29T05:02:24.891Z,101114.41
2022-10-29T05:05:26.411Z,101111.09
2022-10-29T05:08:27.914Z,101111.13
2022-10-29T05:11:29.319Z,101106.69
2022-10-29T05:14:30.716Z,101100.34
2022-10-29T05:17:38.184Z,101112.81
2022-10-29T05:20:39.750Z,101115.47
2022-10-29T05:23:41.871Z,101105.66
2022-10-29T05:26:43.849Z,101106.59
2022-10-29T05:29:45.252Z,101100.47
2022-10-29T05:32:46.623Z,101102.34
2022-10-29T05:35:48.696Z,101092.50
2022-10-29T05:38:50.096Z,101091.47
2022-10-29T05:41:51.639Z,101096.00
2022-10-29T05:44:53.066Z,101096.06
2022-10-29T05:47:59.770Z,101101.53
2022-10-29T05:51:01.288Z,101092.50
2022-10-29T05:54:02.757Z,101091.78
2022-10-29T05:57:04.256Z,101090.91
2022-10-29T06:00:06.391Z,101092.50
2022-10-29T06:03:16.492Z,101092.50
2022-10-29T06:06:17.997Z,101088.03
2022-10-29T06:09:19.413Z,101093.09
2022-10-29T06:12:20.858Z,101088.50
2022-10-29T06:15:22.935Z,101095.56
2022-10-29T06:18:24.554Z,101097.28
2022-10-29T06:21:25.956Z,101095.34
2022-10-29T06:24:27.653Z,101088.25
2022-10-29T06:27:29.072Z,101104.13
2022-10-29T06:30:32.575Z,101097.88
2022-10-29T06:33:33.966Z,101100.59
2022-10-29T06:36:35.380Z,101092.63
2022-10-29T06:39:36.834Z,101086.31
2022-10-29T06:42:38.259Z,101092.47
2022-10-29T06:45:39.760Z,101101.97
2022-10-29T06:48:41.188Z,101099.06
2022-10-29T06:51:42.642Z,101095.25
2022-10-29T06:54:44.056Z,101096.78
2022-10-29T06:57:45.449Z,101098.41
2022-10-29T07:00:48.043Z,101091.84
2022-10-29T07:03:49.545Z,101094.34
2022-10-29T07:06:50.983Z,101093.03
2022-10-29T07:09:52.374Z,101096.09
2022-10-29T07:12:53.788Z,101096.63
2022-10-29T07:15:55.262Z,101099.13
2022-10-29T07:18:57.575Z,101097.03
2022-10-29T07:21:59.253Z,101102.78
2022-10-29T07:25:01.373Z,101103.16
2022-10-29T07:28:17.939Z,101111.53
2022-10-29T07:31:19.938Z,101112.84
2022-10-29T07:34:21.440Z,101114.13
2022-10-29T07:37:23.928Z,101117.31
2022-10-29T07:40:25.329Z,101121.31
2022-10-29T07:43:26.730Z,101118.41
2022-10-29T07:46:28.130Z,101125.16
2022-10-29T07:49:29.578Z,101122.44
2022-10-29T07:52:30.956Z,101130.44
2022-10-29T07:55:32.381Z,101131.28
2022-10-29T07:58:33.811Z,101130.34
2022-10-29T08:01:35.293Z,101130.75
2022-10-29T08:04:36.816Z,101131.69
2022-10-29T08:07:38.204Z,101133.19
2022-10-29T08:10:39.749Z,101130.28
2022-10-29T08:13:41.163Z,101128.88
2022-10-29T08:16:42.558Z,101131.34
2022-10-29T08:19:43.947Z,101128.78
2022-10-29T08:22:45.363Z,101128.25
2022-10-29T08:25:46.818Z,101126.34
2022-10-29T08:28:48.238Z,101122.25
2022-10-29T08:31:49.912Z,101132.75
2022-10-29T08:34:51.350Z,101130.00
2022-10-29T08:37:52.945Z,101127.50
2022-10-29T08:40:58.928Z,101138.09
2022-10-29T08:44:19.084Z,101139.56
2022-10-29T08:47:23.302Z,101138.97
2022-10-29T08:50:33.084Z,101135.78
2022-10-29T08:53:39.523Z,101132.94
2022-10-29T08:56:48.857Z,101127.16
2022-10-29T09:00:03.164Z,101133.44
2022-10-29T09:03:13.713Z,101138.06
2022-10-29T09:06:37.953Z,101136.84
2022-10-29T09:09:49.141Z,101133.84
2022-10-29T09:13:00.197Z,101135.50
2022-10-29T09:16:29.351Z,101134.53
2022-10-29T09:19:33.391Z,101130.31
2022-10-29T09:23:00.628Z,101131.84
2022-10-29T09:26:11.420Z,101124.09
2022-10-29T09:29:30.335Z,101114.88
2022-10-29T09:32:40.830Z,101123.53
2022-10-29T09:35:49.222Z,101111.50
2022-10-29T09:38:59.226Z,101111.38
2022-10-29T09:42:03.005Z,101112.72
2022-10-29T09:45:09.300Z,101109.03
2022-10-29T09:48:48.259Z,101104.81
2022-10-29T09:51:49.583Z,101107.91
2022-10-29T09:54:53.214Z,101105.50
2022-10-29T09:57:57.388Z,101109.44
2022-10-29T10:00:58.819Z,101105.19
2022-10-29T10:04:21.541Z,101109.22
2022-10-29T10:07:22.953Z,101100.78
2022-10-29T10:10:24.356Z,101102.50
2022-10-29T10:13:38.295Z,101102.28
2022-10-29T10:16:40.795Z,101098.81
2022-10-29T10:19:45.214Z,101093.81
2022-10-29T10:22:47.438Z,101089.09
2022-10-29T10:25:49.919Z,101079.91
2022-10-29T10:29:04.025Z,101089.66
2022-10-29T10:32:05.436Z,101079.44
2022-10-29T10:35:27.289Z,101075.16
2022-10-29T10:38:28.927Z,101072.94
2022-10-29T10:41:34.488Z,101062.84
2022-10-29T10:44:52.898Z,101056.88
2022-10-29T10:47:58.660Z,101052.59
2022-10-29T10:51:18.798Z,101050.78
2022-10-29T10:54:31.341Z,101041.03
2022-10-29T10:57:37.974Z,101027.47
2022-10-29T11:00:54.338Z,101031.97
2022-10-29T11:04:14.608Z,101022.75
2022-10-29T11:07:17.741Z,101022.75
2022-10-29T11:10:24.331Z,101019.22
2022-10-29T11:13:30.383Z,101016.72
2022-10-29T11:16:43.723Z,101006.53
2022-10-29T11:19:51.134Z,101006.00
2022-10-29T11:22:59.654Z,101006.22
2022-10-29T11:26:13.301Z,100999.13
2022-10-29T11:29:48.931Z,100998.81
2022-10-29T11:33:21.477Z,100991.50
2022-10-29T11:36:25.605Z,100992.06
2022-10-29T11:39:33.313Z,100984.19
2022-10-29T11:42:36.175Z,100980.22
2022-10-29T11:45:37.565Z,100962.97
2022-10-29T11:49:00.744Z,100974.13
2022-10-29T11:52:13.148Z,100962.75
2022-10-29T11:55:33.468Z,100956.75
2022-10-29T11:58:45.950Z,100945.19
2022-10-29T12:01:58.215Z,100946.16
2022-10-29T12:05:16.387Z,100936.81
2022-10-29T12:08:42.161Z,100938.78
2022-10-29T12:11:59.147Z,100943.75
2022-10-29T12:15:16.909Z,100954.16
2022-10-29T12:18:35.712Z,100952.53
2022-10-29T12:21:50.315Z,100954.38
2022-10-29T12:25:15.866Z,100939.41
2022-10-29T12:28:33.366Z,100935.66
2022-10-29T12:31:42.846Z,100934.50
2022-10-29T12:34:52.867Z,100942.88
2022-10-29T12:38:15.439Z,100933.84
2022-10-29T12:41:35.221Z,100931.59
2022-10-29T12:44:53.747Z,100923.72
2022-10-29T12:48:32.103Z,100912.63
2022-10-29T12:51:51.322Z,100905.78
2022-10-29T12:54:54.104Z,100903.19
2022-10-29T12:57:55.540Z,100893.41
2022-10-29T13:00:57.012Z,100897.56
2022-10-29T13:04:00.136Z,100892.03
2022-10-29T13:07:27.899Z,100893.00
2022-10-29T13:10:35.417Z,100890.09
2022-10-29T13:13:42.391Z,100896.00
2022-10-29T13:16:49.197Z,100886.22
2022-10-29T13:19:55.812Z,100893.41
2022-10-29T13:22:59.403Z,100892.09
2022-10-29T13:26:02.704Z,100886.22
2022-10-29T13:29:04.086Z,100882.41
2022-10-29T13:32:06.333Z,100881.41
2022-10-29T13:35:30.741Z,100879.41
2022-10-29T13:38:58.534Z,100872.88
2022-10-29T13:42:12.808Z,100868.56
2022-10-29T13:45:14.241Z,100864.25
2022-10-29T13:48:36.824Z,100862.78
2022-10-29T13:51:44.078Z,100855.69
2022-10-29T13:55:08.702Z,100857.41
2022-10-29T13:58:16.102Z,100849.88
2022-10-29T14:01:21.246Z,100851.09
2022-10-29T14:04:28.346Z,100848.66
2022-10-29T14:07:56.413Z,100838.22
2022-10-29T14:10:59.407Z,100838.63
2022-10-29T14:14:04.900Z,100838.38
2022-10-29T14:17:15.181Z,100837.06
2022-10-29T14:20:25.719Z,100833.78
2022-10-29T14:23:29.112Z,100833.88
2022-10-29T14:26:33.228Z,100839.03
2022-10-29T14:29:34.623Z,100833.47
2022-10-29T14:32:39.439Z,100829.22
2022-10-29T14:35:40.900Z,100834.69
2022-10-29T14:38:50.668Z,100832.25
2022-10-29T14:41:53.473Z,100829.16
2022-10-29T14:44:57.812Z,100831.31
2022-10-29T14:48:05.278Z,100833.44
2022-10-29T14:51:06.725Z,100829.91
2022-10-29T14:54:16.358Z,100829.38
2022-10-29T14:57:21.000Z,100831.03
2022-10-29T15:00:29.906Z,100834.91
2022-10-29T15:03:33.763Z,100831.72
2022-10-29T15:06:35.267Z,100835.81
2022-10-29T15:09:36.677Z,100830.00
2022-10-29T15:12:39.667Z,100832.28
2022-10-29T15:15:53.207Z,100831.03
2022-10-29T15:18:56.850Z,100825.97
2022-10-29T15:21:58.251Z,100820.41
2022-10-29T15:25:02.851Z,100821.59
2022-10-29T15:28:10.262Z,100819.47
2022-10-29T15:31:45.321Z,100814.16
2022-10-29T15:34:55.257Z,100814.41
2022-10-29T15:37:56.826Z,100814.59
2022-10-29T15:41:19.381Z,100814.06
2022-10-29T15:44:28.452Z,100816.75
2022-10-29T15:47:29.858Z,100807.31
2022-10-29T15:50:38.472Z,100813.75
2022-10-29T15:53:40.131Z,100811.50
2022-10-29T15:56:41.570Z,100805.38
2022-10-29T15:59:42.996Z,100812.69
2022-10-29T16:02:44.469Z,100811.16
2022-10-29T16:05:49.291Z,100815.13
2022-10-29T16:08:57.060Z,100811.06
2022-10-29T16:11:58.531Z,100822.41
2022-10-29T16:14:59.927Z,100822.84
2022-10-29T16:18:01.318Z,100815.22
2022-10-29T16:21:05.482Z,100816.69
2022-10-29T16:24:13.110Z,100817.22
2022-10-29T16:27:17.128Z,100819.31
2022-10-29T16:30:19.785Z,100816.91
2022-10-29T16:33:21.873Z,100811.88
2022-10-29T16:36:23.788Z,100810.38
2022-10-29T16:39:25.167Z,100815.94
2022-10-29T16:42:33.280Z,100812.69
2022-10-29T16:45:35.039Z,100811.28
2022-10-29T16:48:36.885Z,100815.34
2022-10-29T16:51:38.338Z,100818.13
2022-10-29T16:54:39.711Z,100816.28
2022-10-29T16:57:41.151Z,100820.47
2022-10-29T17:00:42.685Z,100820.38
2022-10-29T17:03:44.135Z,100815.13
2022-10-29T17:06:45.513Z,100823.84
2022-10-29T17:09:46.926Z,100822.50
2022-10-29T17:12:48.701Z,100823.75
2022-10-29T17:15:50.220Z,100823.91
2022-10-29T17:18:51.936Z,100823.53
2022-10-29T17:21:53.526Z,100833.66
2022-10-29T17:24:54.914Z,100827.38
2022-10-29T17:27:56.605Z,100826.38
2022-10-29T17:30:58.166Z,100827.47
2022-10-29T17:33:59.599Z,100827.53
2022-10-29T17:37:01.090Z,100829.94
2022-10-29T17:40:06.774Z,100826.69
2022-10-29T17:43:09.403Z,100833.66
2022-10-29T17:46:10.886Z,100834.59
2022-10-29T17:49:12.300Z,100834.97
2022-10-29T17:52:13.700Z,100835.19
2022-10-29T17:55:15.205Z,100835.84
2022-10-29T17:58:20.088Z,100833.53
2022-10-29T18:01:21.630Z,100841.75
2022-10-29T18:04:23.115Z,100843.41
2022-10-29T18:07:24.603Z,100842.41
2022-10-29T18:10:26.064Z,100837.28
2022-10-29T18:13:31.176Z,100836.72
2022-10-29T18:16:32.668Z,100838.69
2022-10-29T18:19:34.046Z,100841.47
2022-10-29T18:22:35.817Z,100836.50
2022-10-29T18:25:37.197Z,100839.91
2022-10-29T18:28:38.778Z,100836.38
2022-10-29T18:31:44.691Z,100836.50
2022-10-29T18:34:46.158Z,100834.78
2022-10-29T18:37:47.569Z,100830.09
2022-10-29T18:40:56.234Z,100826.94
2022-10-29T18:43:58.773Z,100839.47
2022-10-29T18:47:00.172Z,100829.81
2022-10-29T18:50:01.566Z,100830.75
2022-10-29T18:53:02.958Z,100828.44
2022-10-29T18:56:09.353Z,100828.66
2022-10-29T18:59:12.623Z,100830.38
2022-10-29T19:02:14.185Z,100825.19
2022-10-29T19:05:15.739Z,100825.56
2022-10-29T19:08:17.116Z,100820.31
2022-10-29T19:11:25.392Z,100825.91
2022-10-29T19:14:26.774Z,100827.69
2022-10-29T19:17:28.161Z,100820.91
2022-10-29T19:20:30.421Z,100827.47
2022-10-29T19:23:32.173Z,100828.53
2022-10-29T19:26:35.298Z,100822.41
2022-10-29T19:29:36.680Z,100822.25
2022-10-29T19:32:38.078Z,100829.84
2022-10-29T19:35:39.459Z,100822.19
2022-10-29T19:38:40.881Z,100830.13
2022-10-29T19:41:42.304Z,100826.88
2022-10-29T19:44:43.697Z,100826.00
2022-10-29T19:47:45.269Z,100830.75
2022-10-29T19:50:54.998Z,100832.81
2022-10-29T19:53:58.487Z,100827.72
2022-10-29T19:57:00.063Z,100830.31
2022-10-29T20:00:01.532Z,100831.19
2022-10-29T20:03:02.960Z,100835.50
2022-10-29T20:06:06.271Z,100828.25
2022-10-29T20:09:07.734Z,100830.81
2022-10-29T20:12:09.107Z,100837.78
2022-10-29T20:15:11.923Z,100835.97
2022-10-29T20:18:13.348Z,100836.09
2022-10-29T20:21:15.463Z,100837.03
2022-10-29T20:24:17.040Z,100842.53
2022-10-29T20:27:18.539Z,100847.97
2022-10-29T20:30:19.989Z,100841.66
2022-10-29T20:33:21.368Z,100845.13
2022-10-29T20:36:24.406Z,100851.66
2022-10-29T20:39:30.762Z,100841.69
2022-10-29T20:42:34.720Z,100850.41
2022-10-29T20:45:36.121Z,100846.06
2022-10-29T20:48:37.655Z,100850.63
2022-10-29T20:51:39.164Z,100848.94
2022-10-29T20:54:40.558Z,100854.94
2022-10-29T20:57:41.942Z,100863.22
2022-10-29T21:00:43.320Z,100856.31
2022-10-29T21:03:45.142Z,100863.56
2022-10-29T21:06:46.533Z,100858.38
2022-10-29T21:09:48.439Z,100859.50
2022-10-29T21:12:49.830Z,100857.03
2022-10-29T21:15:51.250Z,100862.97
2022-10-29T21:18:58.408Z,100851.84
2022-10-29T21:21:59.791Z,100859.06
2022-10-29T21:25:01.172Z,100857.38
2022-10-29T21:28:02.604Z,100852.03
2022-10-29T21:31:04.149Z,100854.00
2022-10-29T21:34:05.542Z,100847.19
2022-10-29T21:37:07.016Z,100847.34
2022-10-29T21:40:09.414Z,100842.16
2022-10-29T21:43:10.796Z,100847.34
2022-10-29T21:46:12.328Z,100848.34
2022-10-29T21:49:13.709Z,100852.53
2022-10-29T21:52:15.164Z,100849.06
2022-10-29T21:55:16.560Z,100849.06
2022-10-29T21:58:17.958Z,100845.63
2022-10-29T22:01:19.548Z,100843.81
2022-10-29T22:04:21.046Z,100843.66
2022-10-29T22:07:22.475Z,100854.31
2022-10-29T22:10:24.029Z,100848.44
2022-10-29T22:13:27.048Z,100844.22
2022-10-29T22:16:28.467Z,100840.97
2022-10-29T22:19:29.873Z,100844.56
2022-10-29T22:22:31.972Z,100839.94
2022-10-29T22:25:33.372Z,100850.00
2022-10-29T22:28:34.796Z,100841.38
2022-10-29T22:31:36.171Z,100845.41
2022-10-29T22:34:37.552Z,100849.00
2022-10-29T22:37:38.972Z,100855.28
2022-10-29T22:40:40.907Z,100849.53
2022-10-29T22:43:43.339Z,100845.38
2022-10-29T22:46:44.793Z,100850.59
2022-10-29T22:49:46.174Z,100847.44
2022-10-29T22:52:48.700Z,100849.44
2022-10-29T22:55:53.991Z,100848.75
2022-10-29T22:58:55.648Z,100849.09
2022-10-29T23:01:57.174Z,100852.69
2022-10-29T23:04:58.692Z,100850.44
2022-10-29T23:08:00.419Z,100846.13
2022-10-29T23:11:25.093Z,100851.63
2022-10-29T23:14:27.176Z,100848.47
2022-10-29T23:17:28.572Z,100844.28
2022-10-29T23:20:30.043Z,100848.47
2022-10-29T23:23:32.306Z,100843.34
2022-10-29T23:26:33.718Z,100839.00
2022-10-29T23:29:35.115Z,100842.78
2022-10-29T23:32:36.495Z,100836.59
2022-10-29T23:35:37.893Z,100834.56
2022-10-29T23:38:39.597Z,100844.41
2022-10-29T23:41:40.994Z,100836.09
2022-10-29T23:44:42.377Z,100826.41
2022-10-29T23:47:43.973Z,100829.22
2022-10-29T23:50:45.897Z,100822.34
2022-10-29T23:53:50.281Z,100824.16
2022-10-29T23:56:54.633Z,100820.31
2022-10-29T23:59:56.021Z,100818.66
